sensor_id;sensor_type;location;lat;lon;timestamp;pressure;altitude;pressure_sealevel;temperature;humidity
47738;BME280;33502;47.182;27.506;2023-02-28T00:00:22;101406.25;;;0.24;100.00
47738;BME280;33502;47.182;27.506;2023-02-28T00:02:48;101401.03;;;0.24;100.00
47738;BME280;33502;47.182;27.506;2023-02-28T00:05:18;101400.16;;;0.23;100.00
47738;BME280;33502;47.182;27.506;2023-02-28T00:07:45;101396.66;;;0.23;100.00
47738;BME280;33502;47.182;27.506;2023-02-28T00:10:14;101402.78;;;0.23;100.00
47738;BME280;33502;47.182;27.506;2023-02-28T00:12:40;101415.75;;;0.22;100.00
47738;BME280;33502;47.182;27.506;2023-02-28T00:15:08;101418.38;;;0.22;100.00
47738;BME280;33502;47.182;27.506;2023-02-28T00:17:34;101417.50;;;0.23;100.00
47738;BME280;33502;47.182;27.506;2023-02-28T00:20:00;101417.50;;;0.23;100.00
47738;BME280;33502;47.182;27.506;2023-02-28T00:22:34;101417.50;;;0.23;100.00
47738;BME280;33502;47.182;27.506;2023-02-28T00:24:59;101425.31;;;0.23;100.00
47738;BME280;33502;47.182;27.506;2023-02-28T00:27:26;101422.72;;;0.23;100.00
47738;BME280;33502;47.182;27.506;2023-02-28T00:29:51;101437.47;;;0.22;100.00
47738;BME280;33502;47.182;27.506;2023-02-28T00:32:19;101433.13;;;0.23;100.00
47738;BME280;33502;47.182;27.506;2023-02-28T00:34:45;101434.03;;;0.23;100.00
47738;BME280;33502;47.182;27.506;2023-02-28T00:37:11;101434.94;;;0.25;100.00
47738;BME280;33502;47.182;27.506;2023-02-28T00:39:40;101440.09;;;0.24;100.00
47738;BME280;33502;47.182;27.506;2023-02-28T00:42:07;101442.75;;;0.25;100.00
47738;BME280;33502;47.182;27.506;2023-02-28T00:44:33;101452.28;;;0.25;100.00
47738;BME280;33502;47.182;27.506;2023-02-28T00:47:00;101443.63;;;0.26;100.00
47738;BME280;33502;47.182;27.506;2023-02-28T00:49:27;101457.50;;;0.26;100.00
47738;BME280;33502;47.182;27.506;2023-02-28T00:51:54;101452.28;;;0.25;100.00
47738;BME280;33502;47.182;27.506;2023-02-28T00:54:21;101453.97;;;0.23;100.00
47738;BME280;33502;47.182;27.506;2023-02-28T00:56:48;101453.97;;;0.23;100.00
47738;BME280;33502;47.182;27.506;2023-02-28T00:59:15;101457.44;;;0.22;100.00
47738;BME280;33502;47.182;27.506;2023-02-28T01:01:42;101460.06;;;0.22;100.00
47738;BME280;33502;47.182;27.506;2023-02-28T01:04:08;101459.19;;;0.23;100.00
47738;BME280;33502;47.182;27.506;2023-02-28T01:06:35;101469.59;;;0.21;100.00
47738;BME280;33502;47.182;27.506;2023-02-28T01:09:02;101468.66;;;0.17;100.00
47738;BME280;33502;47.182;27.506;2023-02-28T01:11:28;101477.34;;;0.18;100.00
47738;BME280;33502;47.182;27.506;2023-02-28T01:13:54;101483.38;;;0.17;100.00
47738;BME280;33502;47.182;27.506;2023-02-28T01:16:20;101472.97;;;0.15;100.00
47738;BME280;33502;47.182;27.506;2023-02-28T01:18:46;101479.84;;;0.13;100.00
47738;BME280;33502;47.182;27.506;2023-02-28T01:21:15;101482.44;;;0.12;100.00
47738;BME280;33502;47.182;27.506;2023-02-28T01:23:42;101491.97;;;0.10;100.00
47738;BME280;33502;47.182;27.506;2023-02-28T01:26:14;101492.88;;;0.12;100.00
47738;BME280;33502;47.182;27.506;2023-02-28T01:28:41;101491.97;;;0.11;100.00
47738;BME280;33502;47.182;27.506;2023-02-28T01:31:08;101485.06;;;0.12;100.00
47738;BME280;33502;47.182;27.506;2023-02-28T01:33:36;101481.53;;;0.10;100.00
47738;BME280;33502;47.182;27.506;2023-02-28T01:36:05;101474.56;;;0.09;100.00
47738;BME280;33502;47.182;27.506;2023-02-28T01:38:33;101475.44;;;0.08;100.00
47738;BME280;33502;47.182;27.506;2023-02-28T01:40:59;101467.56;;;0.05;100.00
47738;BME280;33502;47.182;27.506;2023-02-28T01:43:28;101468.38;;;0.02;100.00
47738;BME280;33502;47.182;27.506;2023-02-28T01:45:56;101459.66;;;0.02;100.00
47738;BME280;33502;47.182;27.506;2023-02-28T01:48:27;101461.38;;;-0.01;100.00
47738;BME280;33502;47.182;27.506;2023-02-28T01:50:59;101463.97;;;-0.01;100.00
47738;BME280;33502;47.182;27.506;2023-02-28T01:53:35;101460.50;;;-0.01;100.00
47738;BME280;33502;47.182;27.506;2023-02-28T01:56:05;101458.75;;;-0.01;100.00
47738;BME280;33502;47.182;27.506;2023-02-28T01:58:32;101456.13;;;-0.02;100.00
47738;BME280;33502;47.182;27.506;2023-02-28T02:00:58;101458.72;;;-0.02;100.00
47738;BME280;33502;47.182;27.506;2023-02-28T02:03:25;101465.72;;;-0.01;100.00
47738;BME280;33502;47.182;27.506;2023-02-28T02:05:51;101468.31;;;-0.01;100.00
47738;BME280;33502;47.182;27.506;2023-02-28T02:08:23;101463.09;;;-0.01;100.00
47738;BME280;33502;47.182;27.506;2023-02-28T02:19:08;101471.75;;;-0.02;100.00
47738;BME280;33502;47.182;27.506;2023-02-28T02:41:05;101490.91;;;0.00;100.00
47738;BME280;33502;47.182;27.506;2023-02-28T02:43:46;101494.38;;;0.01;100.00
47738;BME280;33502;47.182;27.506;2023-02-28T02:46:41;101504.81;;;0.01;100.00
47738;BME280;33502;47.182;27.506;2023-02-28T02:49:11;101495.25;;;0.01;100.00
47738;BME280;33502;47.182;27.506;2023-02-28T02:51:39;101495.25;;;0.01;100.00
47738;BME280;33502;47.182;27.506;2023-02-28T02:54:20;101494.41;;;0.02;100.00
47738;BME280;33502;47.182;27.506;2023-02-28T02:56:49;101507.44;;;0.04;100.00
47738;BME280;33502;47.182;27.506;2023-02-28T02:59:18;101514.34;;;0.02;100.00
47738;BME280;33502;47.182;27.506;2023-02-28T03:02:03;101517.00;;;0.03;100.00
47738;BME280;33502;47.182;27.506;2023-02-28T03:04:34;101516.16;;;0.04;100.00
47738;BME280;33502;47.182;27.506;2023-02-28T03:07:01;101504.88;;;0.05;100.00
47738;BME280;33502;47.182;27.506;2023-02-28T03:09:27;101503.19;;;0.07;100.00
47738;BME280;33502;47.182;27.506;2023-02-28T03:11:55;101509.28;;;0.08;100.00
47738;BME280;33502;47.182;27.506;2023-02-28T03:14:26;101511.91;;;0.08;100.00
47738;BME280;33502;47.182;27.506;2023-02-28T03:17:17;101518.84;;;0.09;100.00
47738;BME280;33502;47.182;27.506;2023-02-28T03:23:09;101516.31;;;0.13;100.00
47738;BME280;33502;47.182;27.506;2023-02-28T03:28:23;101516.31;;;0.12;100.00
47738;BME280;33502;47.182;27.506;2023-02-28T03:31:00;101511.94;;;0.11;100.00
47738;BME280;33502;47.182;27.506;2023-02-28T03:33:30;101514.50;;;0.09;100.00
47738;BME280;33502;47.182;27.506;2023-02-28T03:36:09;101520.63;;;0.10;100.00
47738;BME280;33502;47.182;27.506;2023-02-28T03:41:14;101517.19;;;0.12;100.00
47738;BME280;33502;47.182;27.506;2023-02-28T03:43:45;101517.22;;;0.14;100.00
47738;BME280;33502;47.182;27.506;2023-02-28T03:46:15;101526.78;;;0.15;100.00
47738;BME280;33502;47.182;27.506;2023-02-28T03:48:46;101524.16;;;0.15;100.00
47738;BME280;33502;47.182;27.506;2023-02-28T03:51:17;101516.31;;;0.12;100.00
47738;BME280;33502;47.182;27.506;2023-02-28T03:53:50;101516.28;;;0.10;100.00
47738;BME280;33502;47.182;27.506;2023-02-28T03:56:20;101515.41;;;0.10;100.00
47738;BME280;33502;47.182;27.506;2023-02-28T03:58:55;101518.00;;;0.10;100.00
47738;BME280;33502;47.182;27.506;2023-02-28T04:01:27;101520.56;;;0.08;100.00
47738;BME280;33502;47.182;27.506;2023-02-28T04:03:55;101522.28;;;0.06;100.00
47738;BME280;33502;47.182;27.506;2023-02-28T04:06:22;101526.59;;;0.06;100.00
47738;BME280;33502;47.182;27.506;2023-02-28T04:08:49;101521.38;;;0.04;100.00
47738;BME280;33502;47.182;27.506;2023-02-28T04:13:52;101520.50;;;0.05;100.00
47738;BME280;33502;47.182;27.506;2023-02-28T04:16:18;101525.69;;;0.04;100.00
47738;BME280;33502;47.182;27.506;2023-02-28T04:18:44;101526.56;;;0.04;100.00
47738;BME280;33502;47.182;27.506;2023-02-28T04:21:10;101523.06;;;0.02;100.00
47738;BME280;33502;47.182;27.506;2023-02-28T04:23:36;101520.41;;;-0.01;100.00
47738;BME280;33502;47.182;27.506;2023-02-28T04:26:02;101521.22;;;-0.02;100.00
47738;BME280;33502;47.182;27.506;2023-02-28T04:28:29;101529.94;;;-0.02;100.00
47738;BME280;33502;47.182;27.506;2023-02-28T04:30:57;101526.44;;;-0.04;100.00
47738;BME280;33502;47.182;27.506;2023-02-28T04:33:23;101523.81;;;-0.04;100.00
47738;BME280;33502;47.182;27.506;2023-02-28T04:38:25;101530.69;;;-0.07;100.00
47738;BME280;33502;47.182;27.506;2023-02-28T04:40:51;101526.31;;;-0.08;100.00
47738;BME280;33502;47.182;27.506;2023-02-28T04:43:17;101528.00;;;-0.10;100.00
47738;BME280;33502;47.182;27.506;2023-02-28T04:45:43;101525.41;;;-0.10;100.00
47738;BME280;33502;47.182;27.506;2023-02-28T04:48:08;101521.03;;;-0.13;100.00
47738;BME280;33502;47.182;27.506;2023-02-28T04:50:34;101524.50;;;-0.12;100.00
47738;BME280;33502;47.182;27.506;2023-02-28T04:53:00;101526.28;;;-0.11;100.00
47738;BME280;33502;47.182;27.506;2023-02-28T04:55:26;101521.91;;;-0.12;100.00
47738;BME280;33502;47.182;27.506;2023-02-28T04:57:51;101522.78;;;-0.12;100.00
47738;BME280;33502;47.182;27.506;2023-02-28T05:00:17;101523.59;;;-0.14;100.00
47738;BME280;33502;47.182;27.506;2023-02-28T05:02:43;101530.50;;;-0.16;100.00
47738;BME280;33502;47.182;27.506;2023-02-28T05:05:09;101542.66;;;-0.15;100.00
47738;BME280;33502;47.182;27.506;2023-02-28T05:07:35;101542.69;;;-0.14;100.00
47738;BME280;33502;47.182;27.506;2023-02-28T05:10:00;101549.59;;;-0.16;100.00
47738;BME280;33502;47.182;27.506;2023-02-28T05:12:26;101543.53;;;-0.16;100.00
47738;BME280;33502;47.182;27.506;2023-02-28T05:14:52;101549.59;;;-0.16;100.00
47738;BME280;33502;47.182;27.506;2023-02-28T05:17:18;101549.59;;;-0.16;100.00
47738;BME280;33502;47.182;27.506;2023-02-28T05:19:43;101559.13;;;-0.16;100.00
47738;BME280;33502;47.182;27.506;2023-02-28T05:22:14;101550.41;;;-0.18;100.00
47738;BME280;33502;47.182;27.506;2023-02-28T05:24:41;101553.84;;;-0.20;100.00
47738;BME280;33502;47.182;27.506;2023-02-28T05:27:07;101548.66;;;-0.20;100.00
47738;BME280;33502;47.182;27.506;2023-02-28T05:29:33;101559.91;;;-0.21;100.00
47738;BME280;33502;47.182;27.506;2023-02-28T05:31:59;101566.91;;;-0.18;100.00
47738;BME280;33502;47.182;27.506;2023-02-28T05:34:25;101566.09;;;-0.15;100.00
47738;BME280;33502;47.182;27.506;2023-02-28T05:36:51;101567.78;;;-0.17;100.00
47738;BME280;33502;47.182;27.506;2023-02-28T05:39:17;101575.66;;;-0.14;100.00
47738;BME280;33502;47.182;27.506;2023-02-28T05:41:43;101577.28;;;-0.20;100.00
47738;BME280;33502;47.182;27.506;2023-02-28T05:44:09;101578.06;;;-0.24;100.00
47738;BME280;33502;47.182;27.506;2023-02-28T05:46:35;101577.19;;;-0.24;100.00
47738;BME280;33502;47.182;27.506;2023-02-28T05:49:01;101580.66;;;-0.24;100.00
47738;BME280;33502;47.182;27.506;2023-02-28T05:51:27;101584.09;;;-0.26;100.00
47738;BME280;33502;47.182;27.506;2023-02-28T05:53:53;101589.34;;;-0.25;100.00
47738;BME280;33502;47.182;27.506;2023-02-28T05:56:19;101590.25;;;-0.21;100.00
47738;BME280;33502;47.182;27.506;2023-02-28T05:58:44;101596.38;;;-0.21;100.00
47738;BME280;33502;47.182;27.506;2023-02-28T06:01:34;101598.97;;;-0.21;100.00
47738;BME280;33502;47.182;27.506;2023-02-28T06:04:02;101603.34;;;-0.18;100.00
47738;BME280;33502;47.182;27.506;2023-02-28T06:06:28;101600.72;;;-0.20;100.00
47738;BME280;33502;47.182;27.506;2023-02-28T06:08:55;101606.69;;;-0.24;100.00
47738;BME280;33502;47.182;27.506;2023-02-28T06:11:21;101605.88;;;-0.21;100.00
47738;BME280;33502;47.182;27.506;2023-02-28T06:13:56;101606.88;;;-0.16;100.00
47738;BME280;33502;47.182;27.506;2023-02-28T06:16:23;101603.47;;;-0.13;100.00
47738;BME280;33502;47.182;27.506;2023-02-28T06:18:49;101606.25;;;-0.06;100.00
47738;BME280;33502;47.182;27.506;2023-02-28T06:21:15;101600.25;;;-0.02;100.00
47738;BME280;33502;47.182;27.506;2023-02-28T06:23:41;101601.25;;;0.05;100.00
47738;BME280;33502;47.182;27.506;2023-02-28T06:26:07;101602.16;;;0.07;100.00
47738;BME280;33502;47.182;27.506;2023-02-28T06:28:32;101599.69;;;0.15;100.00
47738;BME280;33502;47.182;27.506;2023-02-28T06:30:58;101600.69;;;0.20;100.00
47738;BME280;33502;47.182;27.506;2023-02-28T06:33:24;101595.41;;;0.17;100.00
47738;BME280;33502;47.182;27.506;2023-02-28T06:35:51;101594.63;;;0.21;100.00
47738;BME280;33502;47.182;27.506;2023-02-28T06:38:17;101594.00;;;0.34;100.00
47738;BME280;33502;47.182;27.506;2023-02-28T06:40:44;101590.66;;;0.42;100.00
47738;BME280;33502;47.182;27.506;2023-02-28T06:43:10;101596.94;;;0.51;100.00
47738;BME280;33502;47.182;27.506;2023-02-28T06:45:42;101603.16;;;0.58;100.00
47738;BME280;33502;47.182;27.506;2023-02-28T06:48:09;101601.53;;;0.63;100.00
47738;BME280;33502;47.182;27.506;2023-02-28T06:50:36;101611.09;;;0.64;100.00
47738;BME280;33502;47.182;27.506;2023-02-28T06:53:02;101607.59;;;0.64;100.00
47738;BME280;33502;47.182;27.506;2023-02-28T06:55:28;101610.38;;;0.73;100.00
47738;BME280;33502;47.182;27.506;2023-02-28T06:57:54;101613.28;;;0.88;100.00
47738;BME280;33502;47.182;27.506;2023-02-28T07:00:20;101610.06;;;1.05;100.00
47738;BME280;33502;47.182;27.506;2023-02-28T07:02:46;101611.94;;;1.12;100.00
47738;BME280;33502;47.182;27.506;2023-02-28T07:05:13;101611.09;;;1.14;100.00
47738;BME280;33502;47.182;27.506;2023-02-28T07:07:39;101610.38;;;1.23;100.00
47738;BME280;33502;47.182;27.506;2023-02-28T07:10:10;101607.69;;;1.20;100.00
47738;BME280;33502;47.182;27.506;2023-02-28T07:12:36;101615.50;;;1.17;100.00
47738;BME280;33502;47.182;27.506;2023-02-28T07:15:03;101616.50;;;1.25;100.00
47738;BME280;33502;47.182;27.506;2023-02-28T07:17:29;101614.88;;;1.32;100.00
47738;BME280;33502;47.182;27.506;2023-02-28T07:19:55;101617.63;;;1.43;100.00
47738;BME280;33502;47.182;27.506;2023-02-28T07:22:21;101618.56;;;1.46;100.00
47738;BME280;33502;47.182;27.506;2023-02-28T07:24:47;101622.16;;;1.54;100.00
47738;BME280;33502;47.182;27.506;2023-02-28T07:27:13;101620.56;;;1.64;100.00
47738;BME280;33502;47.182;27.506;2023-02-28T07:29:49;101626.94;;;1.82;100.00
47738;BME280;33502;47.182;27.506;2023-02-28T07:32:15;101625.22;;;1.84;100.00
47738;BME280;33502;47.182;27.506;2023-02-28T07:34:41;101628.75;;;1.89;100.00
47738;BME280;33502;47.182;27.506;2023-02-28T07:37:07;101616.59;;;1.91;100.00
47738;BME280;33502;47.182;27.506;2023-02-28T07:39:33;101620.25;;;2.04;100.00
47738;BME280;33502;47.182;27.506;2023-02-28T07:41:58;101620.53;;;2.27;100.00
47738;BME280;33502;47.182;27.506;2023-02-28T07:44:26;101619.09;;;2.50;100.00
47738;BME280;33502;47.182;27.506;2023-02-28T07:46:52;101622.75;;;2.68;100.00
47738;BME280;33502;47.182;27.506;2023-02-28T07:49:19;101623.22;;;3.16;100.00
47738;BME280;33502;47.182;27.506;2023-02-28T07:51:45;101626.09;;;3.51;100.00
47738;BME280;33502;47.182;27.506;2023-02-28T07:54:11;101616.63;;;3.71;100.00
47738;BME280;33502;47.182;27.506;2023-02-28T07:56:36;101621.88;;;3.76;100.00
47738;BME280;33502;47.182;27.506;2023-02-28T07:59:02;101635.88;;;3.78;100.00
47738;BME280;33502;47.182;27.506;2023-02-28T08:01:28;101625.53;;;4.03;100.00
47738;BME280;33502;47.182;27.506;2023-02-28T08:03:54;101630.91;;;4.30;100.00
47738;BME280;33502;47.182;27.506;2023-02-28T08:06:24;101636.22;;;4.50;100.00
47738;BME280;33502;47.182;27.506;2023-02-28T08:08:50;101632.69;;;4.36;100.00
47738;BME280;33502;47.182;27.506;2023-02-28T08:11:17;101637.06;;;4.36;100.00
47738;BME280;33502;47.182;27.506;2023-02-28T08:13:43;101639.72;;;4.49;100.00
47738;BME280;33502;47.182;27.506;2023-02-28T08:16:10;101638.88;;;4.55;100.00
47738;BME280;33502;47.182;27.506;2023-02-28T08:18:36;101651.06;;;4.44;100.00
47738;BME280;33502;47.182;27.506;2023-02-28T08:21:09;101650.19;;;4.48;100.00
47738;BME280;33502;47.182;27.506;2023-02-28T08:23:35;101645.94;;;4.82;100.00
47738;BME280;33502;47.182;27.506;2023-02-28T08:26:02;101641.63;;;5.12;100.00
47738;BME280;33502;47.182;27.506;2023-02-28T08:28:28;101647.72;;;5.06;100.00
47738;BME280;33502;47.182;27.506;2023-02-28T08:30:54;101646.84;;;5.09;100.00
47738;BME280;33502;47.182;27.506;2023-02-28T08:33:20;101648.63;;;5.24;100.00
47738;BME280;33502;47.182;27.506;2023-02-28T08:35:46;101646.84;;;5.54;100.00
47738;BME280;33502;47.182;27.506;2023-02-28T08:38:12;101644.19;;;5.97;100.00
47738;BME280;33502;47.182;27.506;2023-02-28T08:40:38;101638.78;;;6.32;100.00
47738;BME280;33502;47.182;27.506;2023-02-28T08:43:03;101638.56;;;6.80;100.00
47738;BME280;33502;47.182;27.506;2023-02-28T08:45:29;101638.13;;;7.38;100.00
47738;BME280;33502;47.182;27.506;2023-02-28T08:47:55;101635.25;;;8.47;100.00
47738;BME280;33502;47.182;27.506;2023-02-28T08:50:22;101634.31;;;8.51;97.95
47738;BME280;33502;47.182;27.506;2023-02-28T08:52:48;101634.44;;;8.40;99.52
47738;BME280;33502;47.182;27.506;2023-02-28T08:55:14;101645.16;;;8.94;100.00
47738;BME280;33502;47.182;27.506;2023-02-28T08:57:39;101641.00;;;8.78;95.18
47738;BME280;33502;47.182;27.506;2023-02-28T09:00:06;101638.28;;;8.82;97.90
47738;BME280;33502;47.182;27.506;2023-02-28T09:02:33;101639.41;;;8.66;93.45
47738;BME280;33502;47.182;27.506;2023-02-28T09:04:59;101635.06;;;8.62;96.88
47738;BME280;33502;47.182;27.506;2023-02-28T09:07:25;101640.22;;;8.70;98.91
47738;BME280;33502;47.182;27.506;2023-02-28T09:09:51;101632.78;;;9.52;99.27
47738;BME280;33502;47.182;27.506;2023-02-28T09:12:24;101633.09;;;10.27;91.25
47738;BME280;33502;47.182;27.506;2023-02-28T09:14:50;101640.19;;;9.80;92.60
47738;BME280;33502;47.182;27.506;2023-02-28T09:17:16;101644.47;;;8.81;91.62
47738;BME280;33502;47.182;27.506;2023-02-28T09:19:42;101643.19;;;8.45;97.64
47738;BME280;33502;47.182;27.506;2023-02-28T09:22:09;101640.56;;;8.40;99.04
47738;BME280;33502;47.182;27.506;2023-02-28T09:24:36;101654.00;;;8.92;91.11
47738;BME280;33502;47.182;27.506;2023-02-28T09:27:02;101637.13;;;8.37;95.83
47738;BME280;33502;47.182;27.506;2023-02-28T09:29:28;101636.75;;;7.90;100.00
47738;BME280;33502;47.182;27.506;2023-02-28T09:31:54;101630.00;;;7.64;100.00
47738;BME280;33502;47.182;27.506;2023-02-28T09:34:21;101633.94;;;7.14;100.00
47738;BME280;33502;47.182;27.506;2023-02-28T09:36:47;101640.22;;;6.96;100.00
47738;BME280;33502;47.182;27.506;2023-02-28T09:39:13;101639.50;;;6.66;100.00
47738;BME280;33502;47.182;27.506;2023-02-28T09:41:43;101643.00;;;6.70;100.00
47738;BME280;33502;47.182;27.506;2023-02-28T09:44:38;101645.69;;;6.64;100.00
47738;BME280;33502;47.182;27.506;2023-02-28T09:47:31;101648.34;;;6.58;100.00
47738;BME280;33502;47.182;27.506;2023-02-28T09:50:06;101643.72;;;7.00;100.00
47738;BME280;33502;47.182;27.506;2023-02-28T09:52:38;101637.53;;;7.07;100.00
47738;BME280;33502;47.182;27.506;2023-02-28T09:55:34;101634.66;;;7.32;100.00
47738;BME280;33502;47.182;27.506;2023-02-28T09:58:05;101628.25;;;7.60;100.00
47738;BME280;33502;47.182;27.506;2023-02-28T10:00:38;101626.41;;;7.72;100.00
47738;BME280;33502;47.182;27.506;2023-02-28T10:05:52;101635.63;;;7.21;100.00
47738;BME280;33502;47.182;27.506;2023-02-28T10:08:30;101646.38;;;6.94;100.00
47738;BME280;33502;47.182;27.506;2023-02-28T10:11:00;101632.50;;;6.67;100.00
47738;BME280;33502;47.182;27.506;2023-02-28T10:13:48;101633.47;;;6.54;100.00
47738;BME280;33502;47.182;27.506;2023-02-28T10:21:34;101628.34;;;6.15;100.00
47738;BME280;33502;47.182;27.506;2023-02-28T10:24:19;101620.53;;;5.89;100.00
47738;BME280;33502;47.182;27.506;2023-02-28T10:26:47;101633.69;;;5.61;100.00
47738;BME280;33502;47.182;27.506;2023-02-28T10:29:13;101626.69;;;5.48;100.00
47738;BME280;33502;47.182;27.506;2023-02-28T10:31:39;101623.22;;;5.35;100.00
47738;BME280;33502;47.182;27.506;2023-02-28T10:34:07;101621.47;;;5.19;100.00
47738;BME280;33502;47.182;27.506;2023-02-28T10:36:37;101615.34;;;5.18;100.00
47738;BME280;33502;47.182;27.506;2023-02-28T10:39:34;101609.22;;;5.15;100.00
47738;BME280;33502;47.182;27.506;2023-02-28T10:42:00;101603.97;;;5.21;100.00
47738;BME280;33502;47.182;27.506;2023-02-28T10:44:26;101598.72;;;5.48;100.00
47738;BME280;33502;47.182;27.506;2023-02-28T10:46:52;101597.81;;;5.51;100.00
47738;BME280;33502;47.182;27.506;2023-02-28T10:49:23;101592.47;;;5.88;100.00
47738;BME280;33502;47.182;27.506;2023-02-28T10:51:56;101590.72;;;5.84;100.00
47738;BME280;33502;47.182;27.506;2023-02-28T10:54:31;101593.38;;;5.87;100.00
47738;BME280;33502;47.182;27.506;2023-02-28T10:57:22;101584.59;;;5.91;100.00
47738;BME280;33502;47.182;27.506;2023-02-28T10:59:52;101588.06;;;5.92;100.00
47738;BME280;33502;47.182;27.506;2023-02-28T11:02:33;101584.63;;;5.77;100.00
47738;BME280;33502;47.182;27.506;2023-02-28T11:04:59;101585.50;;;5.76;100.00
47738;BME280;33502;47.182;27.506;2023-02-28T11:07:26;101583.69;;;6.04;100.00
47738;BME280;33502;47.182;27.506;2023-02-28T11:09:57;101578.41;;;6.07;100.00
47738;BME280;33502;47.182;27.506;2023-02-28T11:12:31;101581.78;;;6.37;100.00
47738;BME280;33502;47.182;27.506;2023-02-28T11:15:18;101577.25;;;6.64;100.00
47738;BME280;33502;47.182;27.506;2023-02-28T11:18:01;101581.59;;;6.66;100.00
47738;BME280;33502;47.182;27.506;2023-02-28T11:20:30;101576.53;;;6.37;100.00
47738;BME280;33502;47.182;27.506;2023-02-28T11:22:58;101575.84;;;5.98;100.00
47738;BME280;33502;47.182;27.506;2023-02-28T11:25:30;101574.16;;;5.49;100.00
47738;BME280;33502;47.182;27.506;2023-02-28T11:27:59;101580.34;;;4.85;100.00
47738;BME280;33502;47.182;27.506;2023-02-28T11:30:38;101575.00;;;4.41;100.00
47738;BME280;33502;47.182;27.506;2023-02-28T11:33:23;101571.41;;;4.20;100.00
47738;BME280;33502;47.182;27.506;2023-02-28T11:35:57;101562.66;;;4.10;100.00
47738;BME280;33502;47.182;27.506;2023-02-28T11:38:25;101563.50;;;4.06;100.00
47738;BME280;33502;47.182;27.506;2023-02-28T11:43:29;101566.22;;;4.32;100.00
47738;BME280;33502;47.182;27.506;2023-02-28T11:46:10;101565.34;;;4.29;100.00
47738;BME280;33502;47.182;27.506;2023-02-28T12:06:01;101562.66;;;4.06;100.00
47738;BME280;33502;47.182;27.506;2023-02-28T12:09:00;101562.63;;;4.04;100.00
47738;BME280;33502;47.182;27.506;2023-02-28T12:11:42;101561.75;;;3.96;100.00
47738;BME280;33502;47.182;27.506;2023-02-28T12:14:46;101552.97;;;3.91;100.00
47738;BME280;33502;47.182;27.506;2023-02-28T12:22:31;101556.47;;;3.88;100.00
47738;BME280;33502;47.182;27.506;2023-02-28T12:27:40;101544.25;;;3.90;100.00
47738;BME280;33502;47.182;27.506;2023-02-28T12:33:11;101545.16;;;4.00;100.00
47738;BME280;33502;47.182;27.506;2023-02-28T12:35:51;101539.94;;;4.09;100.00
47738;BME280;33502;47.182;27.506;2023-02-28T12:38:29;101544.31;;;4.09;100.00
47738;BME280;33502;47.182;27.506;2023-02-28T12:41:03;101544.31;;;4.09;100.00
47738;BME280;33502;47.182;27.506;2023-02-28T12:43:37;101540.81;;;4.08;100.00
47738;BME280;33502;47.182;27.506;2023-02-28T12:46:19;101545.16;;;4.06;100.00
47738;BME280;33502;47.182;27.506;2023-02-28T12:48:50;101539.91;;;4.06;100.00
47738;BME280;33502;47.182;27.506;2023-02-28T12:51:18;101553.03;;;4.06;100.00
47738;BME280;33502;47.182;27.506;2023-02-28T12:59:55;101541.69;;;4.09;100.00
47738;BME280;33502;47.182;27.506;2023-02-28T13:10:03;101543.41;;;4.08;100.00
47738;BME280;33502;47.182;27.506;2023-02-28T13:12:29;101538.19;;;4.08;100.00
47738;BME280;33502;47.182;27.506;2023-02-28T13:15:20;101531.19;;;4.01;100.00
47738;BME280;33502;47.182;27.506;2023-02-28T13:17:55;101527.72;;;4.05;100.00
47738;BME280;33502;47.182;27.506;2023-02-28T13:20:26;101524.19;;;4.02;100.00
47738;BME280;33502;47.182;27.506;2023-02-28T13:22:54;101522.44;;;3.96;100.00
47738;BME280;33502;47.182;27.506;2023-02-28T13:27:59;101523.28;;;3.90;100.00
47738;BME280;33502;47.182;27.506;2023-02-28T13:49:26;101515.38;;;3.86;100.00
47738;BME280;33502;47.182;27.506;2023-02-28T14:00:35;101510.88;;;3.57;100.00
47738;BME280;33502;47.182;27.506;2023-02-28T14:03:39;101502.19;;;3.60;100.00
47738;BME280;33502;47.182;27.506;2023-02-28T14:06:25;101505.63;;;3.48;100.00
47738;BME280;33502;47.182;27.506;2023-02-28T14:09:45;101513.47;;;3.46;100.00
47738;BME280;33502;47.182;27.506;2023-02-28T14:17:54;101505.59;;;3.46;100.00
47738;BME280;33502;47.182;27.506;2023-02-28T14:20:22;101510.84;;;3.46;100.00
47738;BME280;33502;47.182;27.506;2023-02-28T14:23:15;101507.34;;;3.44;100.00
47738;BME280;33502;47.182;27.506;2023-02-28T14:26:02;101510.84;;;3.46;100.00
47738;BME280;33502;47.182;27.506;2023-02-28T14:31:48;101503.00;;;3.48;100.00
47738;BME280;33502;47.182;27.506;2023-02-28T14:34:26;101503.00;;;3.48;100.00
47738;BME280;33502;47.182;27.506;2023-02-28T14:36:58;101504.66;;;3.38;100.00
47738;BME280;33502;47.182;27.506;2023-02-28T14:39:27;101508.13;;;3.29;100.00
47738;BME280;33502;47.182;27.506;2023-02-28T14:41:57;101502.00;;;3.26;100.00
47738;BME280;33502;47.182;27.506;2023-02-28T14:44:28;101511.53;;;3.21;100.00
47738;BME280;33502;47.182;27.506;2023-02-28T14:46:59;101505.44;;;3.20;100.00
47738;BME280;33502;47.182;27.506;2023-02-28T14:49:32;101502.78;;;3.17;100.00
47738;BME280;33502;47.182;27.506;2023-02-28T14:54:29;101509.75;;;3.15;100.00
47738;BME280;33502;47.182;27.506;2023-02-28T14:56:54;101501.03;;;3.13;100.00
47738;BME280;33502;47.182;27.506;2023-02-28T14:59:32;101501.88;;;3.09;100.00
47738;BME280;33502;47.182;27.506;2023-02-28T15:02:23;101498.34;;;3.02;100.00
47738;BME280;33502;47.182;27.506;2023-02-28T15:05:01;101500.91;;;2.98;100.00
47738;BME280;33502;47.182;27.506;2023-02-28T15:07:27;101498.25;;;2.90;100.00